Valley View, Illinois
Current Conditions -  °F | °C
As of 1:52 PM on Thursday 27 Nov 2014 (Local Time) from KDPA Reporting Station
Overcast Overcast  
Wind Chill: 13°   Ceiling: 3000
Heat Index: 25°   Visibility: 10mi
Dew Point: 13°   Wind: 14mph
Humidity: 60%   Direction: 320°NW
Pressure: 30.34"   Gusts: NA
Location:  41.9372°N, 88.2876°W
Report Text: KDPA 271952Z 32012KT 10SM BKN030 OVC037 M04/M11 A3034 RMK AO2 SNB02E13 SLP286 P0000 T10391106
Loading
Personal Weather Stations






























Interactive Weather Map New forecast layout! Learn more

10-Day Weather Forecast

Advertisements
Track Severe Weather on mobile